Terminal Aerodrome Forecast
Issued by NWS Caribou, ME

Current Version | Previous Version | Text Only | Print | Product List | Glossary On
Versions: 1 2 3 4 5 6 7 8 9 10 11 12 13 14 15 16 17 18 19 20 21 22 23 24 25 26 27 28 29 30 31 32 33
564 FTUS41 KCAR 020537 TAFBGR TAF KBGR 020537Z 0206/0306 16008KT 2SM +SHRA VCTS BKN008 OVC030CB FM021100 19006KT P6SM BKN010 FM021200 22007KT P6SM BKN250 FM021400 25008KT P6SM SCT250 FM021600 27012KT P6SM SCT250 FM030000 28008KT P6SM FEW250=

USA.gov is the U.S. government's official web portal to all federal, state and local government web resources and services.